sensor_id;sensor_type;location;lat;lon;timestamp;temperature;humidity
14699;DHT22;7439;50.804;4.602;2023-05-14T00:00:30;12.00;99.90
14699;DHT22;7439;50.804;4.602;2023-05-14T00:02:57;12.00;95.30
14699;DHT22;7439;50.804;4.602;2023-05-14T00:05:26;12.00;99.90
14699;DHT22;7439;50.804;4.602;2023-05-14T00:07:53;12.10;99.90
14699;DHT22;7439;50.804;4.602;2023-05-14T00:10:20;12.00;93.20
14699;DHT22;7439;50.804;4.602;2023-05-14T00:12:49;12.00;90.70
14699;DHT22;7439;50.804;4.602;2023-05-14T00:15:16;12.00;18.70
14699;DHT22;7439;50.804;4.602;2023-05-14T00:17:44;12.00;1.00
14699;DHT22;7439;50.804;4.602;2023-05-14T00:20:11;12.00;21.80
14699;DHT22;7439;50.804;4.602;2023-05-14T00:22:40;12.00;1.00
14699;DHT22;7439;50.804;4.602;2023-05-14T00:25:08;12.00;1.00
14699;DHT22;7439;50.804;4.602;2023-05-14T00:27:35;12.00;1.00
14699;DHT22;7439;50.804;4.602;2023-05-14T00:30:04;12.00;1.00
14699;DHT22;7439;50.804;4.602;2023-05-14T00:32:32;11.90;1.00
14699;DHT22;7439;50.804;4.602;2023-05-14T00:34:59;11.90;48.20
14699;DHT22;7439;50.804;4.602;2023-05-14T00:37:27;11.90;22.00
14699;DHT22;7439;50.804;4.602;2023-05-14T00:39:56;11.90;1.00
14699;DHT22;7439;50.804;4.602;2023-05-14T00:42:23;11.90;1.00
14699;DHT22;7439;50.804;4.602;2023-05-14T00:44:51;11.90;1.00
14699;DHT22;7439;50.804;4.602;2023-05-14T00:47:18;11.90;51.20
14699;DHT22;7439;50.804;4.602;2023-05-14T00:49:47;11.90;99.90
14699;DHT22;7439;50.804;4.602;2023-05-14T00:52:14;11.90;99.90
14699;DHT22;7439;50.804;4.602;2023-05-14T00:54:42;11.90;99.90
14699;DHT22;7439;50.804;4.602;2023-05-14T00:57:12;11.80;99.90
14699;DHT22;7439;50.804;4.602;2023-05-14T00:59:39;11.80;99.90
14699;DHT22;7439;50.804;4.602;2023-05-14T01:02:07;11.80;99.90
14699;DHT22;7439;50.804;4.602;2023-05-14T01:04:34;11.90;1.00
14699;DHT22;7439;50.804;4.602;2023-05-14T01:07:10;11.90;1.00
14699;DHT22;7439;50.804;4.602;2023-05-14T01:09:43;11.80;1.00
14699;DHT22;7439;50.804;4.602;2023-05-14T01:12:19;11.90;1.00
14699;DHT22;7439;50.804;4.602;2023-05-14T01:14:54;11.80;1.00
14699;DHT22;7439;50.804;4.602;2023-05-14T01:17:27;11.80;1.00
14699;DHT22;7439;50.804;4.602;2023-05-14T01:19:55;11.80;99.90
14699;DHT22;7439;50.804;4.602;2023-05-14T01:22:25;11.80;99.90
14699;DHT22;7439;50.804;4.602;2023-05-14T01:24:52;11.80;99.90
14699;DHT22;7439;50.804;4.602;2023-05-14T01:27:24;11.80;99.90
14699;DHT22;7439;50.804;4.602;2023-05-14T01:29:58;11.80;99.90
14699;DHT22;7439;50.804;4.602;2023-05-14T01:32:29;11.80;99.90
14699;DHT22;7439;50.804;4.602;2023-05-14T01:35:00;11.70;99.90
14699;DHT22;7439;50.804;4.602;2023-05-14T01:37:29;11.70;99.90
14699;DHT22;7439;50.804;4.602;2023-05-14T01:39:57;11.80;99.90
14699;DHT22;7439;50.804;4.602;2023-05-14T01:42:25;11.70;99.90
14699;DHT22;7439;50.804;4.602;2023-05-14T01:44:53;11.60;99.90
14699;DHT22;7439;50.804;4.602;2023-05-14T01:47:20;11.60;99.90
14699;DHT22;7439;50.804;4.602;2023-05-14T01:49:47;11.60;99.90
14699;DHT22;7439;50.804;4.602;2023-05-14T01:52:15;11.50;99.90
14699;DHT22;7439;50.804;4.602;2023-05-14T01:54:47;11.40;99.90
14699;DHT22;7439;50.804;4.602;2023-05-14T01:57:14;11.40;99.90
14699;DHT22;7439;50.804;4.602;2023-05-14T01:59:41;11.30;1.00
14699;DHT22;7439;50.804;4.602;2023-05-14T02:02:09;11.30;1.00
14699;DHT22;7439;50.804;4.602;2023-05-14T02:04:36;11.20;1.00
14699;DHT22;7439;50.804;4.602;2023-05-14T02:07:03;11.20;1.00
14699;DHT22;7439;50.804;4.602;2023-05-14T02:09:31;11.20;99.90
14699;DHT22;7439;50.804;4.602;2023-05-14T02:11:59;11.20;99.90
14699;DHT22;7439;50.804;4.602;2023-05-14T02:14:27;11.30;99.90
14699;DHT22;7439;50.804;4.602;2023-05-14T02:16:54;11.30;1.00
14699;DHT22;7439;50.804;4.602;2023-05-14T02:19:21;11.30;1.00
14699;DHT22;7439;50.804;4.602;2023-05-14T02:21:49;11.30;1.00
14699;DHT22;7439;50.804;4.602;2023-05-14T02:24:16;11.30;1.00
14699;DHT22;7439;50.804;4.602;2023-05-14T02:26:44;11.40;1.00
14699;DHT22;7439;50.804;4.602;2023-05-14T02:29:12;11.40;1.00
14699;DHT22;7439;50.804;4.602;2023-05-14T02:31:40;11.40;1.00
14699;DHT22;7439;50.804;4.602;2023-05-14T02:34:08;11.40;1.00
14699;DHT22;7439;50.804;4.602;2023-05-14T02:36:35;11.30;1.00
14699;DHT22;7439;50.804;4.602;2023-05-14T02:39:02;11.40;1.00
14699;DHT22;7439;50.804;4.602;2023-05-14T02:41:30;11.40;1.00
14699;DHT22;7439;50.804;4.602;2023-05-14T02:43:57;11.30;1.00
14699;DHT22;7439;50.804;4.602;2023-05-14T02:46:26;11.40;1.00
14699;DHT22;7439;50.804;4.602;2023-05-14T02:48:53;11.30;1.00
14699;DHT22;7439;50.804;4.602;2023-05-14T02:51:20;11.40;99.90
14699;DHT22;7439;50.804;4.602;2023-05-14T02:53:48;11.40;99.90
14699;DHT22;7439;50.804;4.602;2023-05-14T02:56:15;11.40;99.90
14699;DHT22;7439;50.804;4.602;2023-05-14T02:58:42;11.50;96.10
14699;DHT22;7439;50.804;4.602;2023-05-14T03:01:09;11.40;1.00
14699;DHT22;7439;50.804;4.602;2023-05-14T03:03:38;11.50;1.00
14699;DHT22;7439;50.804;4.602;2023-05-14T03:06:06;11.50;1.00
14699;DHT22;7439;50.804;4.602;2023-05-14T03:08:33;11.50;1.00
14699;DHT22;7439;50.804;4.602;2023-05-14T03:11:00;11.50;1.00
14699;DHT22;7439;50.804;4.602;2023-05-14T03:13:27;11.60;1.00
14699;DHT22;7439;50.804;4.602;2023-05-14T03:15:54;11.60;99.90
14699;DHT22;7439;50.804;4.602;2023-05-14T03:18:22;11.60;99.90
14699;DHT22;7439;50.804;4.602;2023-05-14T03:20:51;11.60;99.90
14699;DHT22;7439;50.804;4.602;2023-05-14T03:23:18;11.60;99.90
14699;DHT22;7439;50.804;4.602;2023-05-14T03:25:45;11.50;99.90
14699;DHT22;7439;50.804;4.602;2023-05-14T03:28:12;11.60;99.90
14699;DHT22;7439;50.804;4.602;2023-05-14T03:30:39;11.60;99.90
14699;DHT22;7439;50.804;4.602;2023-05-14T03:33:07;11.60;99.90
14699;DHT22;7439;50.804;4.602;2023-05-14T03:35:34;11.60;99.90
14699;DHT22;7439;50.804;4.602;2023-05-14T03:38:02;11.60;99.90
14699;DHT22;7439;50.804;4.602;2023-05-14T03:40:30;11.50;99.90
14699;DHT22;7439;50.804;4.602;2023-05-14T03:42:57;11.50;27.40
14699;DHT22;7439;50.804;4.602;2023-05-14T03:45:24;11.50;83.50
14699;DHT22;7439;50.804;4.602;2023-05-14T03:47:53;11.60;23.80
14699;DHT22;7439;50.804;4.602;2023-05-14T03:50:20;11.50;1.00
14699;DHT22;7439;50.804;4.602;2023-05-14T03:52:49;11.50;1.00
14699;DHT22;7439;50.804;4.602;2023-05-14T03:55:18;11.50;98.60
14699;DHT22;7439;50.804;4.602;2023-05-14T03:57:47;11.50;99.90
14699;DHT22;7439;50.804;4.602;2023-05-14T04:00:17;11.50;99.90
14699;DHT22;7439;50.804;4.602;2023-05-14T04:02:44;11.50;49.40
14699;DHT22;7439;50.804;4.602;2023-05-14T04:05:11;11.50;1.00
14699;DHT22;7439;50.804;4.602;2023-05-14T04:07:38;11.50;1.00
14699;DHT22;7439;50.804;4.602;2023-05-14T04:10:06;11.40;1.00
14699;DHT22;7439;50.804;4.602;2023-05-14T04:12:36;11.40;1.00
14699;DHT22;7439;50.804;4.602;2023-05-14T04:15:04;11.50;1.00
14699;DHT22;7439;50.804;4.602;2023-05-14T04:17:32;11.50;1.00
14699;DHT22;7439;50.804;4.602;2023-05-14T04:19:59;11.50;1.00
14699;DHT22;7439;50.804;4.602;2023-05-14T04:22:27;11.60;1.00
14699;DHT22;7439;50.804;4.602;2023-05-14T04:24:54;11.50;1.00
14699;DHT22;7439;50.804;4.602;2023-05-14T04:27:21;11.50;1.00
14699;DHT22;7439;50.804;4.602;2023-05-14T04:29:50;11.60;99.90
14699;DHT22;7439;50.804;4.602;2023-05-14T04:32:17;11.50;99.90
14699;DHT22;7439;50.804;4.602;2023-05-14T04:34:45;11.60;99.90
14699;DHT22;7439;50.804;4.602;2023-05-14T04:37:12;11.60;99.90
14699;DHT22;7439;50.804;4.602;2023-05-14T04:39:40;11.70;99.90
14699;DHT22;7439;50.804;4.602;2023-05-14T04:42:08;11.70;99.90
14699;DHT22;7439;50.804;4.602;2023-05-14T04:44:35;11.70;99.90
14699;DHT22;7439;50.804;4.602;2023-05-14T04:47:04;11.70;99.90
14699;DHT22;7439;50.804;4.602;2023-05-14T04:49:31;11.70;99.90
14699;DHT22;7439;50.804;4.602;2023-05-14T04:52:00;11.70;99.90
14699;DHT22;7439;50.804;4.602;2023-05-14T04:54:27;11.80;99.90
14699;DHT22;7439;50.804;4.602;2023-05-14T04:56:54;11.80;99.90
14699;DHT22;7439;50.804;4.602;2023-05-14T04:59:24;11.80;99.90
14699;DHT22;7439;50.804;4.602;2023-05-14T05:01:51;11.90;26.80
14699;DHT22;7439;50.804;4.602;2023-05-14T05:04:20;11.90;1.00
14699;DHT22;7439;50.804;4.602;2023-05-14T05:06:48;12.00;1.00
14699;DHT22;7439;50.804;4.602;2023-05-14T05:09:16;12.00;1.00
14699;DHT22;7439;50.804;4.602;2023-05-14T05:11:43;12.00;1.00
14699;DHT22;7439;50.804;4.602;2023-05-14T05:14:10;12.00;99.90
14699;DHT22;7439;50.804;4.602;2023-05-14T05:16:38;12.10;99.90
14699;DHT22;7439;50.804;4.602;2023-05-14T05:19:05;12.10;99.90
14699;DHT22;7439;50.804;4.602;2023-05-14T05:21:34;12.10;99.90
14699;DHT22;7439;50.804;4.602;2023-05-14T05:24:01;12.10;99.90
14699;DHT22;7439;50.804;4.602;2023-05-14T05:26:28;12.10;99.90
14699;DHT22;7439;50.804;4.602;2023-05-14T05:28:56;12.20;99.90
14699;DHT22;7439;50.804;4.602;2023-05-14T05:31:24;12.20;10.80
14699;DHT22;7439;50.804;4.602;2023-05-14T05:33:51;12.20;1.00
14699;DHT22;7439;50.804;4.602;2023-05-14T05:36:18;12.30;1.00
14699;DHT22;7439;50.804;4.602;2023-05-14T05:38:47;12.40;1.00
14699;DHT22;7439;50.804;4.602;2023-05-14T05:41:14;12.50;1.00
14699;DHT22;7439;50.804;4.602;2023-05-14T05:43:41;12.40;1.00
14699;DHT22;7439;50.804;4.602;2023-05-14T05:46:09;12.50;1.00
14699;DHT22;7439;50.804;4.602;2023-05-14T05:48:36;12.50;1.00
14699;DHT22;7439;50.804;4.602;2023-05-14T05:51:03;12.60;99.90
14699;DHT22;7439;50.804;4.602;2023-05-14T05:53:31;12.70;99.90
14699;DHT22;7439;50.804;4.602;2023-05-14T05:55:59;12.80;99.90
14699;DHT22;7439;50.804;4.602;2023-05-14T05:58:26;12.80;99.90
14699;DHT22;7439;50.804;4.602;2023-05-14T06:00:53;12.90;99.90
14699;DHT22;7439;50.804;4.602;2023-05-14T06:03:22;13.00;1.00
14699;DHT22;7439;50.804;4.602;2023-05-14T06:05:49;13.10;1.00
14699;DHT22;7439;50.804;4.602;2023-05-14T06:08:17;13.20;1.00
14699;DHT22;7439;50.804;4.602;2023-05-14T06:10:44;13.20;1.00
14699;DHT22;7439;50.804;4.602;2023-05-14T06:13:13;13.30;1.00
14699;DHT22;7439;50.804;4.602;2023-05-14T06:15:40;13.30;1.00
14699;DHT22;7439;50.804;4.602;2023-05-14T06:18:07;13.30;99.90
14699;DHT22;7439;50.804;4.602;2023-05-14T06:20:34;13.20;99.90
14699;DHT22;7439;50.804;4.602;2023-05-14T06:23:01;13.20;99.90
14699;DHT22;7439;50.804;4.602;2023-05-14T06:25:28;13.10;99.90
14699;DHT22;7439;50.804;4.602;2023-05-14T06:27:56;13.10;99.90
14699;DHT22;7439;50.804;4.602;2023-05-14T06:30:26;13.10;99.90
14699;DHT22;7439;50.804;4.602;2023-05-14T06:32:53;13.00;99.90
14699;DHT22;7439;50.804;4.602;2023-05-14T06:35:20;12.90;99.90
14699;DHT22;7439;50.804;4.602;2023-05-14T06:37:48;13.00;99.90
14699;DHT22;7439;50.804;4.602;2023-05-14T06:40:15;13.10;99.90
14699;DHT22;7439;50.804;4.602;2023-05-14T06:42:43;13.10;99.90
14699;DHT22;7439;50.804;4.602;2023-05-14T06:45:10;13.30;99.90
14699;DHT22;7439;50.804;4.602;2023-05-14T06:47:39;13.30;99.90
14699;DHT22;7439;50.804;4.602;2023-05-14T06:50:08;13.40;99.90
14699;DHT22;7439;50.804;4.602;2023-05-14T06:52:36;13.50;99.90
14699;DHT22;7439;50.804;4.602;2023-05-14T06:55:03;13.60;99.90
14699;DHT22;7439;50.804;4.602;2023-05-14T06:57:31;13.70;80.70
14699;DHT22;7439;50.804;4.602;2023-05-14T06:59:58;13.60;1.00
14699;DHT22;7439;50.804;4.602;2023-05-14T07:02:26;13.50;1.00
14699;DHT22;7439;50.804;4.602;2023-05-14T07:04:54;13.40;1.00
14699;DHT22;7439;50.804;4.602;2023-05-14T07:07:21;13.40;1.00
14699;DHT22;7439;50.804;4.602;2023-05-14T07:09:48;13.50;1.00
14699;DHT22;7439;50.804;4.602;2023-05-14T07:12:15;13.40;1.00
14699;DHT22;7439;50.804;4.602;2023-05-14T07:14:42;13.40;19.40
14699;DHT22;7439;50.804;4.602;2023-05-14T07:17:10;13.40;1.00
14699;DHT22;7439;50.804;4.602;2023-05-14T07:19:37;13.50;1.00
14699;DHT22;7439;50.804;4.602;2023-05-14T07:22:05;13.60;1.00
14699;DHT22;7439;50.804;4.602;2023-05-14T07:24:32;13.70;1.00
14699;DHT22;7439;50.804;4.602;2023-05-14T07:26:59;13.70;1.00
14699;DHT22;7439;50.804;4.602;2023-05-14T07:29:27;13.70;1.00
14699;DHT22;7439;50.804;4.602;2023-05-14T07:31:54;13.80;1.00
14699;DHT22;7439;50.804;4.602;2023-05-14T07:34:22;13.80;1.00
14699;DHT22;7439;50.804;4.602;2023-05-14T07:36:52;13.80;1.00
14699;DHT22;7439;50.804;4.602;2023-05-14T07:39:20;13.70;1.00
14699;DHT22;7439;50.804;4.602;2023-05-14T07:41:47;13.80;1.00
14699;DHT22;7439;50.804;4.602;2023-05-14T07:44:15;13.80;1.00
14699;DHT22;7439;50.804;4.602;2023-05-14T07:46:42;13.70;1.00
14699;DHT22;7439;50.804;4.602;2023-05-14T07:49:09;13.60;1.00
14699;DHT22;7439;50.804;4.602;2023-05-14T07:51:36;13.50;1.00
14699;DHT22;7439;50.804;4.602;2023-05-14T07:54:03;13.50;1.00
14699;DHT22;7439;50.804;4.602;2023-05-14T07:56:32;13.50;1.00
14699;DHT22;7439;50.804;4.602;2023-05-14T07:58:59;13.60;1.00
14699;DHT22;7439;50.804;4.602;2023-05-14T08:01:26;13.70;1.00
14699;DHT22;7439;50.804;4.602;2023-05-14T08:03:53;13.70;1.00
14699;DHT22;7439;50.804;4.602;2023-05-14T08:06:21;13.80;1.00
14699;DHT22;7439;50.804;4.602;2023-05-14T08:08:48;13.80;1.00
14699;DHT22;7439;50.804;4.602;2023-05-14T08:11:15;14.00;1.00
14699;DHT22;7439;50.804;4.602;2023-05-14T08:13:44;14.10;1.00
14699;DHT22;7439;50.804;4.602;2023-05-14T08:16:11;14.20;1.00
14699;DHT22;7439;50.804;4.602;2023-05-14T08:18:38;14.30;1.00
14699;DHT22;7439;50.804;4.602;2023-05-14T08:21:05;14.40;1.00
14699;DHT22;7439;50.804;4.602;2023-05-14T08:23:33;14.50;1.00
14699;DHT22;7439;50.804;4.602;2023-05-14T08:26:00;14.60;1.00
14699;DHT22;7439;50.804;4.602;2023-05-14T08:28:28;14.60;1.00
14699;DHT22;7439;50.804;4.602;2023-05-14T08:30:56;14.60;1.00
14699;DHT22;7439;50.804;4.602;2023-05-14T08:33:24;14.50;1.00
14699;DHT22;7439;50.804;4.602;2023-05-14T08:35:52;14.60;1.00
14699;DHT22;7439;50.804;4.602;2023-05-14T08:38:19;14.50;1.00
14699;DHT22;7439;50.804;4.602;2023-05-14T08:40:47;14.50;1.00
14699;DHT22;7439;50.804;4.602;2023-05-14T08:43:15;14.70;1.00
14699;DHT22;7439;50.804;4.602;2023-05-14T08:45:45;14.80;1.00
14699;DHT22;7439;50.804;4.602;2023-05-14T08:48:17;14.90;1.00
14699;DHT22;7439;50.804;4.602;2023-05-14T08:50:45;14.80;99.90
14699;DHT22;7439;50.804;4.602;2023-05-14T08:53:12;14.80;99.90
14699;DHT22;7439;50.804;4.602;2023-05-14T08:55:39;14.90;99.90
14699;DHT22;7439;50.804;4.602;2023-05-14T08:58:07;15.00;99.90
14699;DHT22;7439;50.804;4.602;2023-05-14T09:00:34;15.20;99.90
14699;DHT22;7439;50.804;4.602;2023-05-14T09:03:03;15.50;99.90
14699;DHT22;7439;50.804;4.602;2023-05-14T09:05:32;16.00;99.90
14699;DHT22;7439;50.804;4.602;2023-05-14T09:08:00;16.20;99.90
14699;DHT22;7439;50.804;4.602;2023-05-14T09:10:27;16.20;99.90
14699;DHT22;7439;50.804;4.602;2023-05-14T09:12:56;16.30;99.90
14699;DHT22;7439;50.804;4.602;2023-05-14T09:15:24;16.20;99.90
14699;DHT22;7439;50.804;4.602;2023-05-14T09:17:52;16.00;99.90
14699;DHT22;7439;50.804;4.602;2023-05-14T09:20:19;15.90;99.90
14699;DHT22;7439;50.804;4.602;2023-05-14T09:22:51;15.80;99.90
14699;DHT22;7439;50.804;4.602;2023-05-14T09:25:19;15.80;99.90
14699;DHT22;7439;50.804;4.602;2023-05-14T09:27:46;16.10;99.90
14699;DHT22;7439;50.804;4.602;2023-05-14T09:34:07;16.80;99.90
14699;DHT22;7439;50.804;4.602;2023-05-14T09:36:49;16.80;99.90
14699;DHT22;7439;50.804;4.602;2023-05-14T09:39:27;17.30;99.90
14699;DHT22;7439;50.804;4.602;2023-05-14T09:41:55;17.60;99.90
14699;DHT22;7439;50.804;4.602;2023-05-14T09:44:23;17.80;99.90
14699;DHT22;7439;50.804;4.602;2023-05-14T09:46:51;18.00;99.90
14699;DHT22;7439;50.804;4.602;2023-05-14T09:49:18;18.50;99.90
14699;DHT22;7439;50.804;4.602;2023-05-14T09:51:46;19.20;99.90
14699;DHT22;7439;50.804;4.602;2023-05-14T09:54:14;20.20;99.90
14699;DHT22;7439;50.804;4.602;2023-05-14T09:56:43;21.00;99.90
14699;DHT22;7439;50.804;4.602;2023-05-14T09:59:10;21.70;99.90
14699;DHT22;7439;50.804;4.602;2023-05-14T10:01:38;21.50;99.90
14699;DHT22;7439;50.804;4.602;2023-05-14T10:04:09;20.90;99.90
14699;DHT22;7439;50.804;4.602;2023-05-14T10:06:37;20.90;99.90
14699;DHT22;7439;50.804;4.602;2023-05-14T10:09:09;21.50;99.90
14699;DHT22;7439;50.804;4.602;2023-05-14T10:11:43;22.40;99.90
14699;DHT22;7439;50.804;4.602;2023-05-14T10:14:13;22.90;99.90
14699;DHT22;7439;50.804;4.602;2023-05-14T10:16:46;23.50;99.90
14699;DHT22;7439;50.804;4.602;2023-05-14T10:19:15;23.70;99.90
14699;DHT22;7439;50.804;4.602;2023-05-14T10:21:46;22.90;99.90
14699;DHT22;7439;50.804;4.602;2023-05-14T10:24:14;21.80;98.20
14699;DHT22;7439;50.804;4.602;2023-05-14T10:26:44;21.90;96.30
14699;DHT22;7439;50.804;4.602;2023-05-14T10:29:12;21.70;93.60
14699;DHT22;7439;50.804;4.602;2023-05-14T10:31:46;20.90;83.90
14699;DHT22;7439;50.804;4.602;2023-05-14T10:34:35;20.70;88.10
14699;DHT22;7439;50.804;4.602;2023-05-14T10:37:08;21.60;87.60
14699;DHT22;7439;50.804;4.602;2023-05-14T10:39:43;22.80;88.10
14699;DHT22;7439;50.804;4.602;2023-05-14T10:42:13;23.80;84.90
14699;DHT22;7439;50.804;4.602;2023-05-14T10:44:53;24.30;78.60
14699;DHT22;7439;50.804;4.602;2023-05-14T10:47:21;25.20;73.80
14699;DHT22;7439;50.804;4.602;2023-05-14T10:49:51;24.90;59.60
14699;DHT22;7439;50.804;4.602;2023-05-14T10:52:19;24.20;53.90
14699;DHT22;7439;50.804;4.602;2023-05-14T10:54:53;24.20;51.90
14699;DHT22;7439;50.804;4.602;2023-05-14T10:57:23;24.70;49.70
14699;DHT22;7439;50.804;4.602;2023-05-14T10:59:53;25.10;47.00
14699;DHT22;7439;50.804;4.602;2023-05-14T11:02:23;25.10;40.60
14699;DHT22;7439;50.804;4.602;2023-05-14T11:04:59;24.40;33.60
14699;DHT22;7439;50.804;4.602;2023-05-14T11:07:30;25.20;36.70
14699;DHT22;7439;50.804;4.602;2023-05-14T11:10:01;25.70;32.60
14699;DHT22;7439;50.804;4.602;2023-05-14T11:12:30;26.00;30.30
14699;DHT22;7439;50.804;4.602;2023-05-14T11:14:59;26.60;28.20
14699;DHT22;7439;50.804;4.602;2023-05-14T11:17:27;26.80;25.40
14699;DHT22;7439;50.804;4.602;2023-05-14T11:19:55;26.80;23.60
14699;DHT22;7439;50.804;4.602;2023-05-14T11:22:23;27.10;21.30
14699;DHT22;7439;50.804;4.602;2023-05-14T11:24:50;27.00;17.60
14699;DHT22;7439;50.804;4.602;2023-05-14T11:27:18;27.10;15.90
14699;DHT22;7439;50.804;4.602;2023-05-14T11:29:48;27.10;12.50
14699;DHT22;7439;50.804;4.602;2023-05-14T11:32:16;27.40;11.50
14699;DHT22;7439;50.804;4.602;2023-05-14T11:34:44;27.50;9.20
14699;DHT22;7439;50.804;4.602;2023-05-14T11:37:12;26.80;1.00
14699;DHT22;7439;50.804;4.602;2023-05-14T11:39:45;26.60;1.00
14699;DHT22;7439;50.804;4.602;2023-05-14T11:42:13;26.40;1.00
14699;DHT22;7439;50.804;4.602;2023-05-14T11:44:42;25.90;1.00
14699;DHT22;7439;50.804;4.602;2023-05-14T11:47:11;26.20;1.00
14699;DHT22;7439;50.804;4.602;2023-05-14T11:49:39;26.70;1.00
14699;DHT22;7439;50.804;4.602;2023-05-14T11:52:07;27.00;1.00
14699;DHT22;7439;50.804;4.602;2023-05-14T11:54:34;27.40;1.00
14699;DHT22;7439;50.804;4.602;2023-05-14T11:57:07;27.40;1.00
14699;DHT22;7439;50.804;4.602;2023-05-14T11:59:35;27.50;1.00
14699;DHT22;7439;50.804;4.602;2023-05-14T12:02:03;27.10;1.00
14699;DHT22;7439;50.804;4.602;2023-05-14T12:04:32;27.30;1.00
14699;DHT22;7439;50.804;4.602;2023-05-14T12:07:03;27.40;1.00
14699;DHT22;7439;50.804;4.602;2023-05-14T12:09:35;27.90;1.00
14699;DHT22;7439;50.804;4.602;2023-05-14T12:12:07;27.20;1.00
14699;DHT22;7439;50.804;4.602;2023-05-14T12:14:36;27.20;1.00
14699;DHT22;7439;50.804;4.602;2023-05-14T12:17:10;27.30;1.00
14699;DHT22;7439;50.804;4.602;2023-05-14T12:19:40;27.80;1.00
14699;DHT22;7439;50.804;4.602;2023-05-14T12:22:09;28.10;1.00
14699;DHT22;7439;50.804;4.602;2023-05-14T12:24:36;28.50;1.00
14699;DHT22;7439;50.804;4.602;2023-05-14T12:27:05;28.50;1.00
14699;DHT22;7439;50.804;4.602;2023-05-14T12:29:35;28.70;1.00
14699;DHT22;7439;50.804;4.602;2023-05-14T12:32:07;28.80;1.00
14699;DHT22;7439;50.804;4.602;2023-05-14T12:34:35;28.90;1.00
14699;DHT22;7439;50.804;4.602;2023-05-14T12:37:04;29.30;1.00
14699;DHT22;7439;50.804;4.602;2023-05-14T12:39:32;29.50;1.00
14699;DHT22;7439;50.804;4.602;2023-05-14T12:42:00;29.50;1.00
14699;DHT22;7439;50.804;4.602;2023-05-14T12:44:28;29.50;1.00
14699;DHT22;7439;50.804;4.602;2023-05-14T12:46:55;29.30;1.00
14699;DHT22;7439;50.804;4.602;2023-05-14T12:49:22;29.10;1.00
14699;DHT22;7439;50.804;4.602;2023-05-14T12:51:49;29.30;1.00
14699;DHT22;7439;50.804;4.602;2023-05-14T12:54:18;29.50;1.00
14699;DHT22;7439;50.804;4.602;2023-05-14T12:56:45;29.80;1.00
14699;DHT22;7439;50.804;4.602;2023-05-14T12:59:12;29.70;1.00
14699;DHT22;7439;50.804;4.602;2023-05-14T13:01:39;29.80;1.00
14699;DHT22;7439;50.804;4.602;2023-05-14T13:04:06;30.00;1.00
14699;DHT22;7439;50.804;4.602;2023-05-14T13:06:37;30.00;1.00
14699;DHT22;7439;50.804;4.602;2023-05-14T13:09:04;30.10;1.00
14699;DHT22;7439;50.804;4.602;2023-05-14T13:11:33;29.90;1.00
14699;DHT22;7439;50.804;4.602;2023-05-14T13:14:01;30.00;1.00
14699;DHT22;7439;50.804;4.602;2023-05-14T13:16:28;29.60;1.00
14699;DHT22;7439;50.804;4.602;2023-05-14T13:18:56;29.90;1.00
14699;DHT22;7439;50.804;4.602;2023-05-14T13:21:23;29.80;1.00
14699;DHT22;7439;50.804;4.602;2023-05-14T13:23:50;29.90;1.00
14699;DHT22;7439;50.804;4.602;2023-05-14T13:26:17;29.70;1.00
14699;DHT22;7439;50.804;4.602;2023-05-14T13:28:46;29.60;1.00
14699;DHT22;7439;50.804;4.602;2023-05-14T13:31:13;29.60;1.00
14699;DHT22;7439;50.804;4.602;2023-05-14T13:33:41;29.50;1.00
14699;DHT22;7439;50.804;4.602;2023-05-14T13:36:10;29.10;1.00
14699;DHT22;7439;50.804;4.602;2023-05-14T13:38:37;29.10;1.00
14699;DHT22;7439;50.804;4.602;2023-05-14T13:41:04;29.40;1.00
14699;DHT22;7439;50.804;4.602;2023-05-14T13:43:33;29.80;1.00
14699;DHT22;7439;50.804;4.602;2023-05-14T13:46:03;29.70;1.00
14699;DHT22;7439;50.804;4.602;2023-05-14T13:48:30;29.50;1.00
14699;DHT22;7439;50.804;4.602;2023-05-14T13:50:58;29.00;1.00
14699;DHT22;7439;50.804;4.602;2023-05-14T13:53:26;28.60;1.00
14699;DHT22;7439;50.804;4.602;2023-05-14T13:55:54;28.00;1.00
14699;DHT22;7439;50.804;4.602;2023-05-14T13:58:23;27.70;1.00
14699;DHT22;7439;50.804;4.602;2023-05-14T14:00:51;27.40;1.00
14699;DHT22;7439;50.804;4.602;2023-05-14T14:03:19;26.90;1.00
14699;DHT22;7439;50.804;4.602;2023-05-14T14:05:46;26.40;1.00
14699;DHT22;7439;50.804;4.602;2023-05-14T14:08:13;26.10;1.00
14699;DHT22;7439;50.804;4.602;2023-05-14T14:10:41;25.90;1.00
14699;DHT22;7439;50.804;4.602;2023-05-14T14:13:08;25.80;1.00
14699;DHT22;7439;50.804;4.602;2023-05-14T14:15:35;26.10;1.00
14699;DHT22;7439;50.804;4.602;2023-05-14T14:18:03;25.90;1.00
14699;DHT22;7439;50.804;4.602;2023-05-14T14:20:32;25.80;1.00
14699;DHT22;7439;50.804;4.602;2023-05-14T14:22:59;25.50;1.00
14699;DHT22;7439;50.804;4.602;2023-05-14T14:25:26;25.20;1.00
14699;DHT22;7439;50.804;4.602;2023-05-14T14:27:53;24.90;1.00
14699;DHT22;7439;50.804;4.602;2023-05-14T14:30:20;24.50;1.00
14699;DHT22;7439;50.804;4.602;2023-05-14T14:32:48;24.20;1.00
14699;DHT22;7439;50.804;4.602;2023-05-14T14:35:16;24.00;1.00
14699;DHT22;7439;50.804;4.602;2023-05-14T14:37:45;23.80;1.00
14699;DHT22;7439;50.804;4.602;2023-05-14T14:40:18;23.80;1.00
14699;DHT22;7439;50.804;4.602;2023-05-14T14:42:45;23.70;1.00
14699;DHT22;7439;50.804;4.602;2023-05-14T14:45:12;23.60;1.00
14699;DHT22;7439;50.804;4.602;2023-05-14T14:47:42;23.40;1.00
14699;DHT22;7439;50.804;4.602;2023-05-14T14:50:10;23.20;1.00
14699;DHT22;7439;50.804;4.602;2023-05-14T14:52:39;23.00;1.00
14699;DHT22;7439;50.804;4.602;2023-05-14T14:55:09;22.80;1.00
14699;DHT22;7439;50.804;4.602;2023-05-14T14:57:37;22.60;1.00
14699;DHT22;7439;50.804;4.602;2023-05-14T15:00:05;22.50;1.00
14699;DHT22;7439;50.804;4.602;2023-05-14T15:02:32;22.40;1.00
14699;DHT22;7439;50.804;4.602;2023-05-14T15:05:00;22.30;1.00
14699;DHT22;7439;50.804;4.602;2023-05-14T15:07:27;22.30;1.00
14699;DHT22;7439;50.804;4.602;2023-05-14T15:09:57;22.40;1.00
14699;DHT22;7439;50.804;4.602;2023-05-14T15:12:25;22.40;1.00
14699;DHT22;7439;50.804;4.602;2023-05-14T15:14:53;22.50;1.00
14699;DHT22;7439;50.804;4.602;2023-05-14T15:17:20;22.40;1.00
14699;DHT22;7439;50.804;4.602;2023-05-14T15:19:47;22.30;1.00
14699;DHT22;7439;50.804;4.602;2023-05-14T15:22:14;22.20;1.00
14699;DHT22;7439;50.804;4.602;2023-05-14T15:24:41;22.10;1.00
14699;DHT22;7439;50.804;4.602;2023-05-14T15:27:08;22.10;1.00
14699;DHT22;7439;50.804;4.602;2023-05-14T15:29:37;21.90;1.00
14699;DHT22;7439;50.804;4.602;2023-05-14T15:32:05;21.80;1.00
14699;DHT22;7439;50.804;4.602;2023-05-14T15:34:32;21.60;1.00
14699;DHT22;7439;50.804;4.602;2023-05-14T15:36:59;21.50;1.00
14699;DHT22;7439;50.804;4.602;2023-05-14T15:39:26;21.40;1.00
14699;DHT22;7439;50.804;4.602;2023-05-14T15:41:54;21.20;1.00
14699;DHT22;7439;50.804;4.602;2023-05-14T15:44:21;21.20;1.00
14699;DHT22;7439;50.804;4.602;2023-05-14T15:46:49;21.00;1.00
14699;DHT22;7439;50.804;4.602;2023-05-14T15:49:17;21.00;1.00
14699;DHT22;7439;50.804;4.602;2023-05-14T15:51:44;20.90;1.00
14699;DHT22;7439;50.804;4.602;2023-05-14T15:54:11;21.00;1.00
14699;DHT22;7439;50.804;4.602;2023-05-14T15:56:38;21.00;1.00
14699;DHT22;7439;50.804;4.602;2023-05-14T15:59:05;20.90;1.00
14699;DHT22;7439;50.804;4.602;2023-05-14T16:01:32;20.80;1.00
14699;DHT22;7439;50.804;4.602;2023-05-14T16:04:01;20.70;1.00